Vamdrup, Denmark
Current Conditions -  °F | °C
As of 10:20 PM on Monday 24 Nov 2014 (Local Time) from EKSP Reporting Station
Clear Clear  
Wind Chill: 34°   Ceiling: Unl
Heat Index: 39°   Visibility: 6mi
Dew Point: 37°   Wind: 7mph
Humidity: 93%   Direction: 270°W
Pressure: 30.18"   Gusts: NA
Location:  55.43°N, 9.28°E
Report Text: EKSP 242120Z 27006KT CAVOK 04/03 Q1022 NOSIG RMK FEW230
Loading
Personal Weather Stations






























Interactive Weather Map New forecast layout! Learn more

10-Day Weather Forecast

Advertisements
Track Severe Weather on mobile